sensor_id;sensor_type;location;lat;lon;timestamp;pressure;altitude;pressure_sealevel;temperature;humidity
13011;BME280;6786;57.632;11.962;2022-08-05T00:00:53;100567.09;;;22.75;72.87
13011;BME280;6786;57.632;11.962;2022-08-05T00:03:41;100536.72;;;22.57;72.82
13011;BME280;6786;57.632;11.962;2022-08-05T00:06:11;100567.09;;;22.75;72.96
13011;BME280;6786;57.632;11.962;2022-08-05T00:08:59;100556.31;;;22.75;72.86
13011;BME280;6786;57.632;11.962;2022-08-05T00:11:28;100556.31;;;22.75;72.98
13011;BME280;6786;57.632;11.962;2022-08-05T00:14:05;100560.00;;;22.74;72.90
13011;BME280;6786;57.632;11.962;2022-08-05T00:16:42;100567.09;;;22.75;72.68
13011;BME280;6786;57.632;11.962;2022-08-05T00:19:19;100567.09;;;22.75;72.70
13011;BME280;6786;57.632;11.962;2022-08-05T00:21:49;100549.38;;;22.64;72.64
13011;BME280;6786;57.632;11.962;2022-08-05T00:24:18;100563.06;;;22.79;72.85
13011;BME280;6786;57.632;11.962;2022-08-05T00:26:50;100567.59;;;22.78;72.75
13011;BME280;6786;57.632;11.962;2022-08-05T00:29:19;100563.06;;;22.79;72.49
13011;BME280;6786;57.632;11.962;2022-08-05T00:31:51;100553.47;;;22.76;72.70
13011;BME280;6786;57.632;11.962;2022-08-05T00:34:40;100558.69;;;22.78;72.50
13011;BME280;6786;57.632;11.962;2022-08-05T00:37:28;100524.22;;;22.56;72.33
13011;BME280;6786;57.632;11.962;2022-08-05T00:40:17;100542.09;;;22.65;72.30
13011;BME280;6786;57.632;11.962;2022-08-05T00:42:53;100573.84;;;22.79;72.33
13011;BME280;6786;57.632;11.962;2022-08-05T00:45:21;100578.38;;;22.78;72.21
13011;BME280;6786;57.632;11.962;2022-08-05T00:48:03;100491.97;;;22.30;72.39
13011;BME280;6786;57.632;11.962;2022-08-05T00:50:32;100561.38;;;22.78;72.37
13011;BME280;6786;57.632;11.962;2022-08-05T00:53:01;100566.78;;;22.78;72.21
13011;BME280;6786;57.632;11.962;2022-08-05T00:55:36;100566.78;;;22.78;72.41
13011;BME280;6786;57.632;11.962;2022-08-05T00:58:09;100526.59;;;22.51;72.41
13011;BME280;6786;57.632;11.962;2022-08-05T01:00:38;100560.34;;;22.79;72.39
13011;BME280;6786;57.632;11.962;2022-08-05T01:03:08;100556.81;;;22.78;72.05
13011;BME280;6786;57.632;11.962;2022-08-05T01:05:48;100554.28;;;22.77;72.13
13011;BME280;6786;57.632;11.962;2022-08-05T01:08:16;100559.34;;;22.80;72.23
13011;BME280;6786;57.632;11.962;2022-08-05T01:11:11;100559.66;;;22.77;71.98
13011;BME280;6786;57.632;11.962;2022-08-05T01:13:56;100564.25;;;22.76;72.12
13011;BME280;6786;57.632;11.962;2022-08-05T01:16:29;100568.44;;;22.79;72.35
13011;BME280;6786;57.632;11.962;2022-08-05T01:19:08;100578.38;;;22.78;72.08
13011;BME280;6786;57.632;11.962;2022-08-05T01:21:53;100552.22;;;22.63;71.85
13011;BME280;6786;57.632;11.962;2022-08-05T01:24:39;100556.59;;;22.64;71.84
13011;BME280;6786;57.632;11.962;2022-08-05T01:27:24;100572.16;;;22.78;71.72
13011;BME280;6786;57.632;11.962;2022-08-05T01:30:03;100577.53;;;22.78;72.17
13011;BME280;6786;57.632;11.962;2022-08-05T01:32:46;100575.84;;;22.77;71.85
13011;BME280;6786;57.632;11.962;2022-08-05T01:35:18;100584.94;;;22.76;72.14
13011;BME280;6786;57.632;11.962;2022-08-05T01:38:10;100584.94;;;22.76;72.21
13011;BME280;6786;57.632;11.962;2022-08-05T01:40:53;100576.84;;;22.76;71.79
13011;BME280;6786;57.632;11.962;2022-08-05T01:43:23;100583.91;;;22.77;71.97
13011;BME280;6786;57.632;11.962;2022-08-05T01:45:53;100584.94;;;22.76;71.74
13011;BME280;6786;57.632;11.962;2022-08-05T01:48:23;100588.31;;;22.78;71.60
13011;BME280;6786;57.632;11.962;2022-08-05T01:50:53;100580.25;;;22.78;71.77
13011;BME280;6786;57.632;11.962;2022-08-05T01:53:26;100580.06;;;22.79;71.87
13011;BME280;6786;57.632;11.962;2022-08-05T01:56:15;100563.91;;;22.79;71.81
13011;BME280;6786;57.632;11.962;2022-08-05T01:59:07;100554.28;;;22.77;71.50
13011;BME280;6786;57.632;11.962;2022-08-05T02:01:39;100551.41;;;22.78;71.70
13011;BME280;6786;57.632;11.962;2022-08-05T02:04:08;100562.19;;;22.78;71.81
13011;BME280;6786;57.632;11.962;2022-08-05T02:06:36;100556.00;;;22.78;71.48
13011;BME280;6786;57.632;11.962;2022-08-05T02:09:06;100561.38;;;22.78;71.78
13011;BME280;6786;57.632;11.962;2022-08-05T02:11:44;100554.28;;;22.77;71.50
13011;BME280;6786;57.632;11.962;2022-08-05T02:14:25;100559.66;;;22.77;71.46
13011;BME280;6786;57.632;11.962;2022-08-05T02:17:04;100565.06;;;22.77;71.38
13011;BME280;6786;57.632;11.962;2022-08-05T02:19:47;100561.38;;;22.78;71.48
13011;BME280;6786;57.632;11.962;2022-08-05T02:22:22;100552.59;;;22.76;71.55
13011;BME280;6786;57.632;11.962;2022-08-05T02:25:02;100558.00;;;22.76;71.32
13011;BME280;6786;57.632;11.962;2022-08-05T02:27:36;100556.00;;;22.78;71.64
13011;BME280;6786;57.632;11.962;2022-08-05T02:30:27;100565.91;;;22.77;71.39
13011;BME280;6786;57.632;11.962;2022-08-05T02:33:01;100559.66;;;22.77;71.26
13011;BME280;6786;57.632;11.962;2022-08-05T02:35:33;100561.69;;;22.75;71.31
13011;BME280;6786;57.632;11.962;2022-08-05T02:38:10;100525.94;;;22.57;71.35
13011;BME280;6786;57.632;11.962;2022-08-05T02:40:45;100553.47;;;22.76;71.49
13011;BME280;6786;57.632;11.962;2022-08-05T02:43:14;100554.28;;;22.77;71.18
13011;BME280;6786;57.632;11.962;2022-08-05T02:45:43;100550.59;;;22.78;71.04
13011;BME280;6786;57.632;11.962;2022-08-05T02:48:21;100558.69;;;22.78;71.27
13011;BME280;6786;57.632;11.962;2022-08-05T02:50:57;100558.69;;;22.78;71.22
13011;BME280;6786;57.632;11.962;2022-08-05T02:53:25;100508.38;;;22.53;71.29
13011;BME280;6786;57.632;11.962;2022-08-05T02:56:05;100553.28;;;22.78;71.30
13011;BME280;6786;57.632;11.962;2022-08-05T02:58:35;100556.97;;;22.77;71.24
13011;BME280;6786;57.632;11.962;2022-08-05T03:01:13;100546.84;;;22.71;71.19
13011;BME280;6786;57.632;11.962;2022-08-05T03:03:48;100564.06;;;22.78;71.08
13011;BME280;6786;57.632;11.962;2022-08-05T03:06:30;100554.28;;;22.77;70.90
13011;BME280;6786;57.632;11.962;2022-08-05T03:09:18;100564.25;;;22.76;71.10
13011;BME280;6786;57.632;11.962;2022-08-05T03:12:05;100565.06;;;22.77;71.10
13011;BME280;6786;57.632;11.962;2022-08-05T03:14:33;100565.91;;;22.77;71.22
13011;BME280;6786;57.632;11.962;2022-08-05T03:17:11;100554.28;;;22.69;70.91
13011;BME280;6786;57.632;11.962;2022-08-05T03:19:41;100559.66;;;22.77;70.86
13011;BME280;6786;57.632;11.962;2022-08-05T03:22:11;100552.59;;;22.76;70.65
13011;BME280;6786;57.632;11.962;2022-08-05T03:24:45;100539.81;;;22.78;70.94
13011;BME280;6786;57.632;11.962;2022-08-05T03:27:18;100514.50;;;22.63;71.10
13011;BME280;6786;57.632;11.962;2022-08-05T03:29:47;100529.38;;;22.75;70.97
13011;BME280;6786;57.632;11.962;2022-08-05T03:32:34;100551.41;;;22.78;70.86
13011;BME280;6786;57.632;11.962;2022-08-05T03:35:05;100566.78;;;22.78;70.59
13011;BME280;6786;57.632;11.962;2022-08-05T03:37:34;100562.19;;;22.78;70.63
13011;BME280;6786;57.632;11.962;2022-08-05T03:40:13;100532.34;;;22.64;70.73
13011;BME280;6786;57.632;11.962;2022-08-05T03:42:50;100556.00;;;22.78;70.84
13011;BME280;6786;57.632;11.962;2022-08-05T03:45:18;100551.25;;;22.72;70.86
13011;BME280;6786;57.632;11.962;2022-08-05T03:47:49;100537.41;;;22.67;70.87
13011;BME280;6786;57.632;11.962;2022-08-05T03:50:27;100547.06;;;22.77;70.80
13011;BME280;6786;57.632;11.962;2022-08-05T03:53:00;100556.31;;;22.75;70.71
13011;BME280;6786;57.632;11.962;2022-08-05T03:55:57;100564.25;;;22.76;70.76
13011;BME280;6786;57.632;11.962;2022-08-05T03:58:45;100499.56;;;22.35;70.76
13011;BME280;6786;57.632;11.962;2022-08-05T04:01:18;100529.63;;;22.56;70.51
13011;BME280;6786;57.632;11.962;2022-08-05T04:03:49;100560.69;;;22.76;70.75
13011;BME280;6786;57.632;11.962;2022-08-05T04:06:37;100568.78;;;22.76;70.45
13011;BME280;6786;57.632;11.962;2022-08-05T04:09:13;100556.63;;;22.72;70.70
13011;BME280;6786;57.632;11.962;2022-08-05T04:11:52;100559.66;;;22.77;70.46
13011;BME280;6786;57.632;11.962;2022-08-05T04:14:23;100565.06;;;22.77;70.89
13011;BME280;6786;57.632;11.962;2022-08-05T04:16:57;100550.50;;;22.62;70.43
13011;BME280;6786;57.632;11.962;2022-08-05T04:19:28;100540.59;;;22.62;70.56
13011;BME280;6786;57.632;11.962;2022-08-05T04:21:58;100552.59;;;22.76;70.38
13011;BME280;6786;57.632;11.962;2022-08-05T04:24:37;100542.81;;;22.67;70.25
13011;BME280;6786;57.632;11.962;2022-08-05T04:27:10;100558.31;;;22.73;70.10
13011;BME280;6786;57.632;11.962;2022-08-05T04:29:39;100551.75;;;22.67;70.17
13011;BME280;6786;57.632;11.962;2022-08-05T04:32:08;100543.81;;;22.74;70.20
13011;BME280;6786;57.632;11.962;2022-08-05T04:34:36;100561.69;;;22.75;70.44
13011;BME280;6786;57.632;11.962;2022-08-05T04:37:10;100554.59;;;22.74;70.15
13011;BME280;6786;57.632;11.962;2022-08-05T04:39:38;100550.06;;;22.74;70.16
13011;BME280;6786;57.632;11.962;2022-08-05T04:42:07;100504.09;;;22.34;70.38
13011;BME280;6786;57.632;11.962;2022-08-05T04:44:35;100560.00;;;22.74;69.95
13011;BME280;6786;57.632;11.962;2022-08-05T04:47:03;100554.59;;;22.74;70.14
13011;BME280;6786;57.632;11.962;2022-08-05T04:49:36;100553.78;;;22.73;70.30
13011;BME280;6786;57.632;11.962;2022-08-05T04:52:25;100559.16;;;22.73;70.31
13011;BME280;6786;57.632;11.962;2022-08-05T04:54:54;100565.38;;;22.74;70.06
13011;BME280;6786;57.632;11.962;2022-08-05T04:57:23;100565.38;;;22.74;70.25
13011;BME280;6786;57.632;11.962;2022-08-05T04:59:55;100543.44;;;22.61;70.05
13011;BME280;6786;57.632;11.962;2022-08-05T05:02:24;100576.16;;;22.74;70.14
13011;BME280;6786;57.632;11.962;2022-08-05T05:05:07;100552.88;;;22.65;70.04
13011;BME280;6786;57.632;11.962;2022-08-05T05:07:55;100558.31;;;22.73;70.23
13011;BME280;6786;57.632;11.962;2022-08-05T05:10:28;100559.34;;;22.72;70.13
13011;BME280;6786;57.632;11.962;2022-08-05T05:12:59;100574.81;;;22.70;70.15
13011;BME280;6786;57.632;11.962;2022-08-05T05:15:30;100580.19;;;22.70;70.02
13011;BME280;6786;57.632;11.962;2022-08-05T05:18:18;100601.06;;;22.68;69.94
13011;BME280;6786;57.632;11.962;2022-08-05T05:20:58;100596.03;;;22.73;69.86
13011;BME280;6786;57.632;11.962;2022-08-05T05:23:28;100594.84;;;22.75;69.96
13011;BME280;6786;57.632;11.962;2022-08-05T05:26:16;100567.00;;;22.59;70.13
13011;BME280;6786;57.632;11.962;2022-08-05T05:28:44;100579.56;;;22.76;70.06
13011;BME280;6786;57.632;11.962;2022-08-05T05:31:12;100563.38;;;22.76;69.81
13011;BME280;6786;57.632;11.962;2022-08-05T05:33:44;100540.97;;;22.75;70.08
13011;BME280;6786;57.632;11.962;2022-08-05T05:36:27;100541.13;;;22.74;70.10
13011;BME280;6786;57.632;11.962;2022-08-05T05:38:58;100564.25;;;22.76;70.13
13011;BME280;6786;57.632;11.962;2022-08-05T05:41:30;100552.94;;;22.73;69.70
13011;BME280;6786;57.632;11.962;2022-08-05T05:44:07;100568.78;;;22.76;69.92
13011;BME280;6786;57.632;11.962;2022-08-05T05:46:56;100578.53;;;22.77;70.06
13011;BME280;6786;57.632;11.962;2022-08-05T05:49:29;100562.38;;;22.77;69.78
13011;BME280;6786;57.632;11.962;2022-08-05T05:51:58;100553.25;;;22.70;69.89
13011;BME280;6786;57.632;11.962;2022-08-05T05:54:34;100575.00;;;22.76;69.61
13011;BME280;6786;57.632;11.962;2022-08-05T05:57:16;100565.06;;;22.77;69.72
13011;BME280;6786;57.632;11.962;2022-08-05T05:59:46;100573.84;;;22.79;69.63
13011;BME280;6786;57.632;11.962;2022-08-05T06:02:14;100579.22;;;22.79;69.75
13011;BME280;6786;57.632;11.962;2022-08-05T06:05:03;100581.22;;;22.77;69.57
13011;BME280;6786;57.632;11.962;2022-08-05T06:07:42;100574.69;;;22.79;69.57
13011;BME280;6786;57.632;11.962;2022-08-05T06:10:29;100561.38;;;22.78;69.71
13011;BME280;6786;57.632;11.962;2022-08-05T06:13:02;100545.53;;;22.75;69.56
13011;BME280;6786;57.632;11.962;2022-08-05T06:15:31;100558.00;;;22.76;69.69
13011;BME280;6786;57.632;11.962;2022-08-05T06:18:19;100558.31;;;22.73;69.60
13011;BME280;6786;57.632;11.962;2022-08-05T06:20:56;100570.44;;;22.77;69.67
13011;BME280;6786;57.632;11.962;2022-08-05T06:23:24;100569.78;;;22.75;69.61
13011;BME280;6786;57.632;11.962;2022-08-05T06:26:10;100584.94;;;22.76;69.68
13011;BME280;6786;57.632;11.962;2022-08-05T06:28:49;100586.63;;;22.77;70.07
13011;BME280;6786;57.632;11.962;2022-08-05T06:31:17;100584.78;;;22.77;69.60
13011;BME280;6786;57.632;11.962;2022-08-05T06:33:48;100568.78;;;22.76;69.75
13011;BME280;6786;57.632;11.962;2022-08-05T06:36:34;100571.47;;;22.76;69.91
13011;BME280;6786;57.632;11.962;2022-08-05T06:39:22;100568.78;;;22.76;69.75
13011;BME280;6786;57.632;11.962;2022-08-05T06:41:56;100546.84;;;22.63;69.51
13011;BME280;6786;57.632;11.962;2022-08-05T06:44:24;100568.78;;;22.76;69.64
13011;BME280;6786;57.632;11.962;2022-08-05T06:46:52;100587.47;;;22.77;69.80
13011;BME280;6786;57.632;11.962;2022-08-05T06:49:23;100592.00;;;22.77;69.77
13011;BME280;6786;57.632;11.962;2022-08-05T06:52:12;100590.16;;;22.77;69.87
13011;BME280;6786;57.632;11.962;2022-08-05T06:55:00;100593.03;;;22.76;70.08
13011;BME280;6786;57.632;11.962;2022-08-05T06:57:30;100584.56;;;22.71;70.14
13011;BME280;6786;57.632;11.962;2022-08-05T07:00:18;100588.97;;;22.72;69.83
13011;BME280;6786;57.632;11.962;2022-08-05T07:02:50;100599.44;;;22.75;70.02
13011;BME280;6786;57.632;11.962;2022-08-05T07:05:19;100601.09;;;22.76;69.88
13011;BME280;6786;57.632;11.962;2022-08-05T07:08:04;100529.84;;;22.37;69.89
13011;BME280;6786;57.632;11.962;2022-08-05T07:10:37;100592.00;;;22.77;69.74
13011;BME280;6786;57.632;11.962;2022-08-05T07:13:20;100576.53;;;22.79;69.68
13011;BME280;6786;57.632;11.962;2022-08-05T07:16:25;100554.75;;;22.64;69.62
13011;BME280;6786;57.632;11.962;2022-08-05T07:19:32;100584.63;;;22.79;69.77
13011;BME280;6786;57.632;11.962;2022-08-05T07:22:21;100584.97;;;22.84;69.49
13011;BME280;6786;57.632;11.962;2022-08-05T07:24:55;100581.09;;;22.86;69.85
13011;BME280;6786;57.632;11.962;2022-08-05T07:27:23;100570.50;;;22.85;69.58
13011;BME280;6786;57.632;11.962;2022-08-05T07:30:13;100575.50;;;22.80;69.55
13011;BME280;6786;57.632;11.962;2022-08-05T07:32:56;100590.69;;;22.89;69.56
13011;BME280;6786;57.632;11.962;2022-08-05T07:35:24;100582.94;;;22.86;69.81
13011;BME280;6786;57.632;11.962;2022-08-05T07:38:12;100593.56;;;22.87;69.91
13011;BME280;6786;57.632;11.962;2022-08-05T07:41:00;100599.47;;;22.91;69.72
13011;BME280;6786;57.632;11.962;2022-08-05T07:43:48;100601.16;;;22.92;69.54
13011;BME280;6786;57.632;11.962;2022-08-05T07:46:18;100602.00;;;22.92;69.67
13011;BME280;6786;57.632;11.962;2022-08-05T07:48:52;100598.09;;;22.87;69.67
13011;BME280;6786;57.632;11.962;2022-08-05T07:51:34;100565.72;;;22.71;69.36
13011;BME280;6786;57.632;11.962;2022-08-05T07:54:14;100587.84;;;22.90;69.55
13011;BME280;6786;57.632;11.962;2022-08-05T07:56:44;100592.38;;;22.90;69.47
13011;BME280;6786;57.632;11.962;2022-08-05T07:59:32;100605.19;;;22.88;69.51
13011;BME280;6786;57.632;11.962;2022-08-05T08:02:09;100594.41;;;22.88;69.60
13011;BME280;6786;57.632;11.962;2022-08-05T08:04:44;100594.75;;;22.85;69.82
13011;BME280;6786;57.632;11.962;2022-08-05T08:07:12;100607.19;;;22.86;69.84
13011;BME280;6786;57.632;11.962;2022-08-05T08:09:41;100606.53;;;22.84;69.70
13011;BME280;6786;57.632;11.962;2022-08-05T08:12:09;100615.59;;;22.83;69.41
13011;BME280;6786;57.632;11.962;2022-08-05T08:14:59;100622.00;;;22.82;69.56
13011;BME280;6786;57.632;11.962;2022-08-05T08:17:30;100601.75;;;22.70;69.50
13011;BME280;6786;57.632;11.962;2022-08-05T08:19:58;100624.00;;;22.80;69.52
13011;BME280;6786;57.632;11.962;2022-08-05T08:22:50;100627.72;;;22.79;69.29
13011;BME280;6786;57.632;11.962;2022-08-05T08:25:18;100574.75;;;22.54;69.31
13011;BME280;6786;57.632;11.962;2022-08-05T08:28:06;100614.41;;;22.77;68.95
13011;BME280;6786;57.632;11.962;2022-08-05T08:30:44;100604.97;;;22.73;68.72
13011;BME280;6786;57.632;11.962;2022-08-05T08:33:16;100605.81;;;22.74;68.66
13011;BME280;6786;57.632;11.962;2022-08-05T08:35:45;100593.19;;;22.74;68.49
13011;BME280;6786;57.632;11.962;2022-08-05T08:38:29;100604.81;;;22.75;68.24
13011;BME280;6786;57.632;11.962;2022-08-05T08:41:05;100608.81;;;22.71;68.33
13011;BME280;6786;57.632;11.962;2022-08-05T08:43:35;100606.81;;;22.73;67.92
13011;BME280;6786;57.632;11.962;2022-08-05T08:46:26;100592.25;;;22.58;67.78
13011;BME280;6786;57.632;11.962;2022-08-05T08:48:56;100607.47;;;22.67;67.74
13011;BME280;6786;57.632;11.962;2022-08-05T08:51:47;100622.97;;;22.73;67.51
13011;BME280;6786;57.632;11.962;2022-08-05T08:54:32;100619.28;;;22.74;67.69
13011;BME280;6786;57.632;11.962;2022-08-05T08:57:04;100607.66;;;22.73;67.52
13011;BME280;6786;57.632;11.962;2022-08-05T08:59:39;100561.50;;;22.43;67.70
13011;BME280;6786;57.632;11.962;2022-08-05T09:02:15;100590.59;;;22.57;67.58
13011;BME280;6786;57.632;11.962;2022-08-05T09:04:46;100619.28;;;22.74;67.78
13011;BME280;6786;57.632;11.962;2022-08-05T09:07:35;100620.59;;;22.70;67.60
13011;BME280;6786;57.632;11.962;2022-08-05T09:10:22;100605.13;;;22.72;67.82
13011;BME280;6786;57.632;11.962;2022-08-05T09:12:55;100577.03;;;22.49;67.60
13011;BME280;6786;57.632;11.962;2022-08-05T09:15:30;100614.91;;;22.73;67.65
13011;BME280;6786;57.632;11.962;2022-08-05T09:18:05;100614.91;;;22.73;67.45
13011;BME280;6786;57.632;11.962;2022-08-05T09:20:36;100563.50;;;22.41;67.39
13011;BME280;6786;57.632;11.962;2022-08-05T09:23:07;100614.53;;;22.68;67.61
13011;BME280;6786;57.632;11.962;2022-08-05T09:25:48;100600.72;;;22.63;67.33
13011;BME280;6786;57.632;11.962;2022-08-05T09:28:30;100623.31;;;22.70;67.47
13011;BME280;6786;57.632;11.962;2022-08-05T09:31:02;100615.91;;;22.72;67.33
13011;BME280;6786;57.632;11.962;2022-08-05T09:33:53;100580.13;;;22.54;67.48
13011;BME280;6786;57.632;11.962;2022-08-05T09:36:23;100616.06;;;22.70;67.52
13011;BME280;6786;57.632;11.962;2022-08-05T09:39:00;100620.97;;;22.75;67.33
13011;BME280;6786;57.632;11.962;2022-08-05T09:41:54;100611.19;;;22.74;67.47
13011;BME280;6786;57.632;11.962;2022-08-05T09:44:38;100605.97;;;22.72;67.37
13011;BME280;6786;57.632;11.962;2022-08-05T09:47:09;100615.91;;;22.72;67.80
13011;BME280;6786;57.632;11.962;2022-08-05T09:49:44;100588.88;;;22.56;67.81
13011;BME280;6786;57.632;11.962;2022-08-05T09:52:31;100598.69;;;22.65;67.37
13011;BME280;6786;57.632;11.962;2022-08-05T09:55:02;100614.22;;;22.71;67.54
13011;BME280;6786;57.632;11.962;2022-08-05T09:57:50;100601.75;;;22.70;67.85
13011;BME280;6786;57.632;11.962;2022-08-05T10:00:24;100565.22;;;22.42;67.60
13011;BME280;6786;57.632;11.962;2022-08-05T10:02:53;100619.59;;;22.71;67.54
13011;BME280;6786;57.632;11.962;2022-08-05T10:05:25;100626.69;;;22.72;67.58
13011;BME280;6786;57.632;11.962;2022-08-05T10:07:57;100599.97;;;22.53;67.85
13011;BME280;6786;57.632;11.962;2022-08-05T10:10:47;100606.28;;;22.69;67.70
13011;BME280;6786;57.632;11.962;2022-08-05T10:13:26;100590.59;;;22.57;67.77
13011;BME280;6786;57.632;11.962;2022-08-05T10:16:31;100623.31;;;22.70;67.62
13011;BME280;6786;57.632;11.962;2022-08-05T10:19:04;100599.88;;;22.62;67.90
13011;BME280;6786;57.632;11.962;2022-08-05T10:21:35;100617.91;;;22.70;67.56
13011;BME280;6786;57.632;11.962;2022-08-05T10:24:08;100612.19;;;22.73;67.64
13011;BME280;6786;57.632;11.962;2022-08-05T10:26:40;100582.84;;;22.62;67.84
13011;BME280;6786;57.632;11.962;2022-08-05T10:29:19;100597.72;;;22.74;67.84
13011;BME280;6786;57.632;11.962;2022-08-05T10:32:07;100603.09;;;22.74;67.78
13011;BME280;6786;57.632;11.962;2022-08-05T10:34:56;100578.09;;;22.56;67.46
13011;BME280;6786;57.632;11.962;2022-08-05T10:37:27;100598.56;;;22.74;67.42
13011;BME280;6786;57.632;11.962;2022-08-05T10:40:18;100596.69;;;22.67;67.73
13011;BME280;6786;57.632;11.962;2022-08-05T10:42:58;100612.19;;;22.73;67.48
13011;BME280;6786;57.632;11.962;2022-08-05T10:45:32;100606.81;;;22.73;67.60
13011;BME280;6786;57.632;11.962;2022-08-05T10:48:30;100612.19;;;22.73;67.50
13011;BME280;6786;57.632;11.962;2022-08-05T10:51:19;100609.13;;;22.60;67.71
13011;BME280;6786;57.632;11.962;2022-08-05T10:53:56;100606.81;;;22.73;67.53
13011;BME280;6786;57.632;11.962;2022-08-05T10:56:29;100607.13;;;22.70;67.61
13011;BME280;6786;57.632;11.962;2022-08-05T10:59:07;100606.81;;;22.73;67.60
13011;BME280;6786;57.632;11.962;2022-08-05T11:02:08;100541.94;;;22.33;67.32
13011;BME280;6786;57.632;11.962;2022-08-05T11:04:56;100598.72;;;22.73;67.65
13011;BME280;6786;57.632;11.962;2022-08-05T11:07:25;100595.03;;;22.74;67.67
13011;BME280;6786;57.632;11.962;2022-08-05T11:10:20;100605.13;;;22.72;67.49
13011;BME280;6786;57.632;11.962;2022-08-05T11:12:57;100571.03;;;22.55;67.32
13011;BME280;6786;57.632;11.962;2022-08-05T11:15:28;100604.13;;;22.73;67.37
13011;BME280;6786;57.632;11.962;2022-08-05T11:18:25;100599.75;;;22.72;67.57
13011;BME280;6786;57.632;11.962;2022-08-05T11:20:58;100579.81;;;22.57;67.44
13011;BME280;6786;57.632;11.962;2022-08-05T11:23:41;100594.31;;;22.64;67.74
13011;BME280;6786;57.632;11.962;2022-08-05T11:26:30;100606.13;;;22.71;67.35
13011;BME280;6786;57.632;11.962;2022-08-05T11:29:01;100617.59;;;22.73;67.51
13011;BME280;6786;57.632;11.962;2022-08-05T11:31:39;100558.13;;;22.41;67.79
13011;BME280;6786;57.632;11.962;2022-08-05T11:34:36;100597.00;;;22.64;67.21
13011;BME280;6786;57.632;11.962;2022-08-05T11:37:04;100611.16;;;22.66;67.62
13011;BME280;6786;57.632;11.962;2022-08-05T11:39:53;100587.19;;;22.55;67.63
13011;BME280;6786;57.632;11.962;2022-08-05T11:42:31;100593.94;;;22.59;67.60
13011;BME280;6786;57.632;11.962;2022-08-05T11:45:07;100604.06;;;22.65;67.54
13011;BME280;6786;57.632;11.962;2022-08-05T11:47:56;100615.91;;;22.72;67.68
13011;BME280;6786;57.632;11.962;2022-08-05T11:50:24;100630.38;;;22.71;67.39
13011;BME280;6786;57.632;11.962;2022-08-05T11:52:53;100634.09;;;22.70;67.60
13011;BME280;6786;57.632;11.962;2022-08-05T11:55:24;100635.75;;;22.71;67.47
13011;BME280;6786;57.632;11.962;2022-08-05T11:58:02;100627.34;;;22.66;67.24
13011;BME280;6786;57.632;11.962;2022-08-05T12:00:38;100643.53;;;22.74;67.24
13011;BME280;6786;57.632;11.962;2022-08-05T12:03:15;100642.84;;;22.72;67.23
13011;BME280;6786;57.632;11.962;2022-08-05T12:06:09;100634.72;;;22.64;66.99
13011;BME280;6786;57.632;11.962;2022-08-05T12:08:42;100570.53;;;22.26;67.29
13011;BME280;6786;57.632;11.962;2022-08-05T12:11:18;100633.38;;;22.60;67.55
13011;BME280;6786;57.632;11.962;2022-08-05T12:13:53;100648.25;;;22.72;67.14
13011;BME280;6786;57.632;11.962;2022-08-05T12:16:33;100642.84;;;22.72;67.33
13011;BME280;6786;57.632;11.962;2022-08-05T12:19:05;100639.78;;;22.67;67.05
13011;BME280;6786;57.632;11.962;2022-08-05T12:21:35;100624.97;;;22.63;67.36
13011;BME280;6786;57.632;11.962;2022-08-05T12:24:10;100591.13;;;22.35;67.30
13011;BME280;6786;57.632;11.962;2022-08-05T12:26:45;100600.91;;;22.44;66.96
13011;BME280;6786;57.632;11.962;2022-08-05T12:29:16;100636.94;;;22.68;67.11
13011;BME280;6786;57.632;11.962;2022-08-05T12:31:52;100655.00;;;22.76;66.91
13011;BME280;6786;57.632;11.962;2022-08-05T12:34:22;100649.59;;;22.76;66.97
13011;BME280;6786;57.632;11.962;2022-08-05T12:36:55;100634.78;;;22.72;66.86
13011;BME280;6786;57.632;11.962;2022-08-05T12:39:24;100599.59;;;22.48;66.76
13011;BME280;6786;57.632;11.962;2022-08-05T12:42:08;100647.94;;;22.75;66.71
13011;BME280;6786;57.632;11.962;2022-08-05T12:44:41;100644.22;;;22.76;66.66
13011;BME280;6786;57.632;11.962;2022-08-05T12:47:13;100639.84;;;22.75;67.02
13011;BME280;6786;57.632;11.962;2022-08-05T12:49:55;100623.25;;;22.62;67.03
13011;BME280;6786;57.632;11.962;2022-08-05T12:52:31;100642.53;;;22.75;66.64
13011;BME280;6786;57.632;11.962;2022-08-05T12:55:19;100622.06;;;22.56;66.76
13011;BME280;6786;57.632;11.962;2022-08-05T12:57:50;100564.91;;;22.19;66.96
13011;BME280;6786;57.632;11.962;2022-08-05T13:00:43;100620.88;;;22.59;67.04
13011;BME280;6786;57.632;11.962;2022-08-05T13:03:35;100637.47;;;22.72;66.65
13011;BME280;6786;57.632;11.962;2022-08-05T13:06:13;100642.84;;;22.72;66.60
13011;BME280;6786;57.632;11.962;2022-08-05T13:08:42;100651.94;;;22.71;66.88
13011;BME280;6786;57.632;11.962;2022-08-05T13:11:21;100649.41;;;22.69;66.69
13011;BME280;6786;57.632;11.962;2022-08-05T13:14:20;100650.25;;;22.70;66.80
13011;BME280;6786;57.632;11.962;2022-08-05T13:17:02;100648.56;;;22.69;66.64
13011;BME280;6786;57.632;11.962;2022-08-05T13:19:32;100593.81;;;22.35;66.79
13011;BME280;6786;57.632;11.962;2022-08-05T13:22:19;100651.09;;;22.70;67.00
13011;BME280;6786;57.632;11.962;2022-08-05T13:24:55;100651.94;;;22.71;66.89
13011;BME280;6786;57.632;11.962;2022-08-05T13:27:32;100594.47;;;22.37;66.83
13011;BME280;6786;57.632;11.962;2022-08-05T13:30:06;100629.97;;;22.58;66.76
13011;BME280;6786;57.632;11.962;2022-08-05T13:32:55;100638.75;;;22.60;66.86
13011;BME280;6786;57.632;11.962;2022-08-05T13:35:29;100616.97;;;22.53;66.50
13011;BME280;6786;57.632;11.962;2022-08-05T13:38:17;100659.69;;;22.74;66.67
13011;BME280;6786;57.632;11.962;2022-08-05T13:41:01;100651.78;;;22.72;66.44
13011;BME280;6786;57.632;11.962;2022-08-05T13:43:30;100649.06;;;22.72;66.42